Portada
METAR-TAF:

METAR-TAF

Aeroports :

Iowa County Airport

Mineral Point, Wisconsin, Estats Units d'Amèrica

latitud: 42-53-07N, longitud: 090-13-55W, altitud: 359 m

Observació

L'informe es va fer fa 23 minuts, a les 02:15 UTC
Vent calma
Temperatura 22°C
Humitat 100%
Pressió 1014 hPa
Visibilitat: 16.1 km
Cel clar

METAR: KMRJ 160215Z AUTO 00000KT 10SM CLR 22/22 A2995 RMK AO2

Hora: 21:38 (02:38 UTC)


TAF: manca

Observacions i pronòstics meteorològics de més de 4000 aeroports (METAR i TAF).

Les estacions disponibles són els punts grocs i vermells al mapa.

Posi el ratolí al punt desitjat per veure el nom de l'estació.

Feu clic per veure les observacions i els pronòstics meteorològics.

Per canviar el mapa: feu clic els botons verds amb una creu de color negre per apropar; al botó verd amb un guió per allunyar la imatge; o en les fletxes verdes per a mapes adjacents.


METAR-TAF: